sensor_id;sensor_type;location;lat;lon;timestamp;P1;P2;P0
72509;PMS5003;60532;56.114;40.350;2023-02-28T00:00:46;8.20;7.80;3.80
72509;PMS5003;60532;56.114;40.350;2023-02-28T00:02:47;11.50;11.50;6.00
72509;PMS5003;60532;56.114;40.350;2023-02-28T00:04:48;14.00;14.00;6.00
72509;PMS5003;60532;56.114;40.350;2023-02-28T00:06:52;8.20;7.80;4.00
72509;PMS5003;60532;56.114;40.350;2023-02-28T00:08:53;15.00;13.00;6.00
72509;PMS5003;60532;56.114;40.350;2023-02-28T00:10:54;18.00;11.00;5.50
72509;PMS5003;60532;56.114;40.350;2023-02-28T00:12:55;17.75;12.00;6.25
72509;PMS5003;60532;56.114;40.350;2023-02-28T00:14:59;10.40;6.80;1.00
72509;PMS5003;60532;56.114;40.350;2023-02-28T00:17:00;11.50;11.50;5.50
72509;PMS5003;60532;56.114;40.350;2023-02-28T00:19:00;16.25;9.50;6.00
72509;PMS5003;60532;56.114;40.350;2023-02-28T00:21:01;21.50;13.00;4.00
72509;PMS5003;60532;56.114;40.350;2023-02-28T00:23:01;20.00;11.00;2.00
72509;PMS5003;60532;56.114;40.350;2023-02-28T00:25:02;11.00;11.00;6.50
72509;PMS5003;60532;56.114;40.350;2023-02-28T00:27:03;13.60;11.20;6.00
72509;PMS5003;60532;56.114;40.350;2023-02-28T00:29:04;15.00;12.25;4.50
72509;PMS5003;60532;56.114;40.350;2023-02-28T00:31:04;12.00;12.00;5.50
72509;PMS5003;60532;56.114;40.350;2023-02-28T00:33:05;13.25;12.25;7.00
72509;PMS5003;60532;56.114;40.350;2023-02-28T00:35:06;12.25;12.00;4.50
72509;PMS5003;60532;56.114;40.350;2023-02-28T00:37:08;12.00;9.80;4.00
72509;PMS5003;60532;56.114;40.350;2023-02-28T00:39:09;14.40;14.40;6.20
72509;PMS5003;60532;56.114;40.350;2023-02-28T00:41:10;18.25;12.75;6.75
72509;PMS5003;60532;56.114;40.350;2023-02-28T00:43:10;18.75;13.75;4.50
72509;PMS5003;60532;56.114;40.350;2023-02-28T00:45:11;17.00;10.50;6.00
72509;PMS5003;60532;56.114;40.350;2023-02-28T00:47:11;15.50;13.00;6.00
72509;PMS5003;60532;56.114;40.350;2023-02-28T00:49:12;21.50;13.00;7.00
72509;PMS5003;60532;56.114;40.350;2023-02-28T00:51:12;11.50;9.00;4.00
72509;PMS5003;60532;56.114;40.350;2023-02-28T00:53:13;9.25;8.50;4.00
72509;PMS5003;60532;56.114;40.350;2023-02-28T00:55:13;12.75;10.00;6.00
72509;PMS5003;60532;56.114;40.350;2023-02-28T00:57:14;14.50;6.75;3.00
72509;PMS5003;60532;56.114;40.350;2023-02-28T00:59:15;15.25;11.00;6.00
72509;PMS5003;60532;56.114;40.350;2023-02-28T01:01:15;10.40;7.40;3.00
72509;PMS5003;60532;56.114;40.350;2023-02-28T01:03:16;14.00;14.00;6.75
72509;PMS5003;60532;56.114;40.350;2023-02-28T01:05:17;13.40;11.20;5.20
72509;PMS5003;60532;56.114;40.350;2023-02-28T01:07:17;13.50;12.00;5.50
72509;PMS5003;60532;56.114;40.350;2023-02-28T01:09:18;13.00;10.00;6.00
72509;PMS5003;60532;56.114;40.350;2023-02-28T01:11:18;12.00;12.00;6.00
72509;PMS5003;60532;56.114;40.350;2023-02-28T01:13:19;12.50;9.75;4.00
72509;PMS5003;60532;56.114;40.350;2023-02-28T01:15:20;14.50;13.00;7.00
72509;PMS5003;60532;56.114;40.350;2023-02-28T01:17:20;15.00;12.50;4.00
72509;PMS5003;60532;56.114;40.350;2023-02-28T01:19:21;6.00;3.00;2.50
72509;PMS5003;60532;56.114;40.350;2023-02-28T01:21:21;17.00;13.50;7.00
72509;PMS5003;60532;56.114;40.350;2023-02-28T01:23:22;8.00;5.50;1.50
72509;PMS5003;60532;56.114;40.350;2023-02-28T01:25:23;13.80;10.00;6.00
72509;PMS5003;60532;56.114;40.350;2023-02-28T01:27:24;12.00;6.50;4.00
72509;PMS5003;60532;56.114;40.350;2023-02-28T01:29:24;15.00;11.00;4.50
72509;PMS5003;60532;56.114;40.350;2023-02-28T01:31:25;11.00;9.50;4.00
72509;PMS5003;60532;56.114;40.350;2023-02-28T01:33:25;15.75;13.00;4.00
72509;PMS5003;60532;56.114;40.350;2023-02-28T01:35:26;16.50;13.50;6.00
72509;PMS5003;60532;56.114;40.350;2023-02-28T01:37:26;12.00;12.00;5.00
72509;PMS5003;60532;56.114;40.350;2023-02-28T01:39:27;11.25;10.00;6.00
72509;PMS5003;60532;56.114;40.350;2023-02-28T01:41:30;15.00;11.50;6.00
72509;PMS5003;60532;56.114;40.350;2023-02-28T01:45:43;14.20;10.00;6.00
72509;PMS5003;60532;56.114;40.350;2023-02-28T01:47:44;12.50;10.00;4.00
72509;PMS5003;60532;56.114;40.350;2023-02-28T01:49:45;15.00;12.20;6.20
72509;PMS5003;60532;56.114;40.350;2023-02-28T01:51:49;16.00;12.75;7.00
72509;PMS5003;60532;56.114;40.350;2023-02-28T01:53:56;18.40;9.00;4.00
72509;PMS5003;60532;56.114;40.350;2023-02-28T01:55:59;6.80;5.20;4.20
72509;PMS5003;60532;56.114;40.350;2023-02-28T01:58:00;14.00;11.60;6.20
72509;PMS5003;60532;56.114;40.350;2023-02-28T02:00:03;19.40;13.80;4.00
72509;PMS5003;60532;56.114;40.350;2023-02-28T02:02:05;15.00;7.40;3.00
72509;PMS5003;60532;56.114;40.350;2023-02-28T02:04:05;15.75;12.00;7.00
72509;PMS5003;60532;56.114;40.350;2023-02-28T02:06:06;11.75;5.50;5.00
72509;PMS5003;60532;56.114;40.350;2023-02-28T02:08:08;24.00;14.50;7.00
72509;PMS5003;60532;56.114;40.350;2023-02-28T02:10:16;17.00;11.60;6.60
72509;PMS5003;60532;56.114;40.350;2023-02-28T02:16:28;12.00;10.50;3.00
72509;PMS5003;60532;56.114;40.350;2023-02-28T02:19:20;18.80;13.40;6.80
72509;PMS5003;60532;56.114;40.350;2023-02-28T02:21:03;21.00;15.00;6.00
72509;PMS5003;60532;56.114;40.350;2023-02-28T02:25:42;14.40;13.80;7.80
72509;PMS5003;60532;56.114;40.350;2023-02-28T02:36:13;6.60;6.60;4.00
72509;PMS5003;60532;56.114;40.350;2023-02-28T02:40:27;18.40;14.20;6.00
72509;PMS5003;60532;56.114;40.350;2023-02-28T02:42:50;14.80;13.20;6.00
72509;PMS5003;60532;56.114;40.350;2023-02-28T02:45:02;20.40;13.40;6.00
72509;PMS5003;60532;56.114;40.350;2023-02-28T02:47:14;19.40;15.00;6.80
72509;PMS5003;60532;56.114;40.350;2023-02-28T02:49:20;16.40;13.00;6.80
72509;PMS5003;60532;56.114;40.350;2023-02-28T02:51:21;28.80;14.60;6.00
72509;PMS5003;60532;56.114;40.350;2023-02-28T02:53:25;15.00;13.00;7.40
72509;PMS5003;60532;56.114;40.350;2023-02-28T02:55:29;18.60;15.00;8.60
72509;PMS5003;60532;56.114;40.350;2023-02-28T02:57:33;15.60;10.80;3.40
72509;PMS5003;60532;56.114;40.350;2023-02-28T02:59:36;20.20;15.00;7.00
72509;PMS5003;60532;56.114;40.350;2023-02-28T03:01:38;18.80;15.00;7.00
72509;PMS5003;60532;56.114;40.350;2023-02-28T03:03:39;18.40;17.80;7.00
72509;PMS5003;60532;56.114;40.350;2023-02-28T03:05:49;15.40;13.80;7.80
72509;PMS5003;60532;56.114;40.350;2023-02-28T03:07:51;21.40;17.20;6.80
72509;PMS5003;60532;56.114;40.350;2023-02-28T03:09:52;21.00;18.75;10.00
72509;PMS5003;60532;56.114;40.350;2023-02-28T03:11:54;18.20;15.60;6.20
72509;PMS5003;60532;56.114;40.350;2023-02-28T03:14:17;18.80;16.00;7.40
72509;PMS5003;60532;56.114;40.350;2023-02-28T03:21:01;20.40;13.00;4.40
72509;PMS5003;60532;56.114;40.350;2023-02-28T03:25:16;19.00;15.40;7.80
72509;PMS5003;60532;56.114;40.350;2023-02-28T03:27:27;18.80;16.00;6.40
72509;PMS5003;60532;56.114;40.350;2023-02-28T03:29:33;22.80;15.60;6.20
72509;PMS5003;60532;56.114;40.350;2023-02-28T03:31:36;17.40;12.20;4.00
72509;PMS5003;60532;56.114;40.350;2023-02-28T03:33:42;19.20;17.20;7.00
72509;PMS5003;60532;56.114;40.350;2023-02-28T03:35:48;19.00;15.80;7.00
72509;PMS5003;60532;56.114;40.350;2023-02-28T03:37:52;22.00;19.40;9.60
72509;PMS5003;60532;56.114;40.350;2023-02-28T03:39:55;21.40;16.00;6.80
72509;PMS5003;60532;56.114;40.350;2023-02-28T03:41:58;18.20;15.60;7.00
72509;PMS5003;60532;56.114;40.350;2023-02-28T03:44:02;16.00;13.00;6.00
72509;PMS5003;60532;56.114;40.350;2023-02-28T03:46:05;25.00;17.20;9.00
72509;PMS5003;60532;56.114;40.350;2023-02-28T03:48:11;24.00;17.80;8.60
72509;PMS5003;60532;56.114;40.350;2023-02-28T03:50:14;24.20;15.80;7.00
72509;PMS5003;60532;56.114;40.350;2023-02-28T03:52:17;20.40;17.40;10.00
72509;PMS5003;60532;56.114;40.350;2023-02-28T03:54:18;25.00;19.00;8.80
72509;PMS5003;60532;56.114;40.350;2023-02-28T03:56:27;34.20;22.60;12.20
72509;PMS5003;60532;56.114;40.350;2023-02-28T03:58:33;28.40;21.20;9.60
72509;PMS5003;60532;56.114;40.350;2023-02-28T04:00:38;20.20;18.60;6.20
72509;PMS5003;60532;56.114;40.350;2023-02-28T04:02:40;19.80;13.40;1.00
72509;PMS5003;60532;56.114;40.350;2023-02-28T04:04:40;28.50;24.25;9.25
72509;PMS5003;60532;56.114;40.350;2023-02-28T04:06:49;28.60;22.00;10.00
72509;PMS5003;60532;56.114;40.350;2023-02-28T04:08:50;28.40;21.00;9.40
72509;PMS5003;60532;56.114;40.350;2023-02-28T04:10:56;31.25;23.00;10.00
72509;PMS5003;60532;56.114;40.350;2023-02-28T04:12:58;30.60;20.80;9.60
72509;PMS5003;60532;56.114;40.350;2023-02-28T04:14:58;15.00;15.00;9.00
72509;PMS5003;60532;56.114;40.350;2023-02-28T04:16:59;26.50;17.00;9.00
72509;PMS5003;60532;56.114;40.350;2023-02-28T04:19:00;25.00;16.00;9.50
72509;PMS5003;60532;56.114;40.350;2023-02-28T04:21:03;25.40;18.40;9.00
72509;PMS5003;60532;56.114;40.350;2023-02-28T04:23:04;26.00;21.75;10.00
72509;PMS5003;60532;56.114;40.350;2023-02-28T04:25:04;20.00;14.50;7.00
72509;PMS5003;60532;56.114;40.350;2023-02-28T04:27:05;33.20;24.00;9.80
72509;PMS5003;60532;56.114;40.350;2023-02-28T04:29:06;10.00;9.00;4.00
72509;PMS5003;60532;56.114;40.350;2023-02-28T04:31:08;19.00;17.60;9.00
72509;PMS5003;60532;56.114;40.350;2023-02-28T04:33:09;19.40;15.40;9.00
72509;PMS5003;60532;56.114;40.350;2023-02-28T04:35:09;22.00;19.00;11.50
72509;PMS5003;60532;56.114;40.350;2023-02-28T04:37:10;28.50;25.00;12.75
72509;PMS5003;60532;56.114;40.350;2023-02-28T04:39:10;26.25;18.75;12.00
72509;PMS5003;60532;56.114;40.350;2023-02-28T04:41:11;27.75;21.25;9.75
72509;PMS5003;60532;56.114;40.350;2023-02-28T04:43:12;19.80;15.60;10.00
72509;PMS5003;60532;56.114;40.350;2023-02-28T04:45:12;22.25;20.00;8.00
72509;PMS5003;60532;56.114;40.350;2023-02-28T04:47:13;27.00;20.50;10.00
72509;PMS5003;60532;56.114;40.350;2023-02-28T04:49:13;29.50;22.00;10.50
72509;PMS5003;60532;56.114;40.350;2023-02-28T04:51:15;28.75;24.25;12.75
72509;PMS5003;60532;56.114;40.350;2023-02-28T04:53:15;32.20;23.60;10.00
72509;PMS5003;60532;56.114;40.350;2023-02-28T04:55:16;23.00;18.00;10.00
72509;PMS5003;60532;56.114;40.350;2023-02-28T04:57:16;28.75;22.00;12.00
72509;PMS5003;60532;56.114;40.350;2023-02-28T04:59:17;22.50;20.00;10.00
72509;PMS5003;60532;56.114;40.350;2023-02-28T05:03:21;20.00;17.00;7.00
72509;PMS5003;60532;56.114;40.350;2023-02-28T05:05:22;26.00;21.00;9.00
72509;PMS5003;60532;56.114;40.350;2023-02-28T05:07:23;25.50;18.25;9.00
72509;PMS5003;60532;56.114;40.350;2023-02-28T05:09:23;20.50;15.75;6.50
72509;PMS5003;60532;56.114;40.350;2023-02-28T05:11:25;22.50;15.75;9.50
72509;PMS5003;60532;56.114;40.350;2023-02-28T05:13:26;20.40;16.00;7.40
72509;PMS5003;60532;56.114;40.350;2023-02-28T05:15:27;16.75;13.00;4.00
72509;PMS5003;60532;56.114;40.350;2023-02-28T05:17:27;27.50;23.00;9.00
72509;PMS5003;60532;56.114;40.350;2023-02-28T05:19:28;18.50;16.00;8.00
72509;PMS5003;60532;56.114;40.350;2023-02-28T05:21:33;27.00;14.75;7.00
72509;PMS5003;60532;56.114;40.350;2023-02-28T05:23:33;18.20;16.20;8.40
72509;PMS5003;60532;56.114;40.350;2023-02-28T05:25:34;13.75;13.00;2.50
72509;PMS5003;60532;56.114;40.350;2023-02-28T05:27:34;21.75;19.00;8.25
72509;PMS5003;60532;56.114;40.350;2023-02-28T05:29:35;21.50;21.25;11.00
72509;PMS5003;60532;56.114;40.350;2023-02-28T05:31:41;18.00;13.40;7.80
72509;PMS5003;60532;56.114;40.350;2023-02-28T05:33:42;21.00;17.00;10.00
72509;PMS5003;60532;56.114;40.350;2023-02-28T05:35:42;19.50;16.00;8.50
72509;PMS5003;60532;56.114;40.350;2023-02-28T05:37:43;20.50;16.50;7.00
72509;PMS5003;60532;56.114;40.350;2023-02-28T05:39:43;17.50;16.00;8.00
72509;PMS5003;60532;56.114;40.350;2023-02-28T05:41:44;20.00;13.75;9.50
72509;PMS5003;60532;56.114;40.350;2023-02-28T05:43:44;20.25;14.00;8.00
72509;PMS5003;60532;56.114;40.350;2023-02-28T05:45:45;10.75;10.75;4.00
72509;PMS5003;60532;56.114;40.350;2023-02-28T05:47:45;16.00;14.50;5.50
72509;PMS5003;60532;56.114;40.350;2023-02-28T05:49:46;27.75;17.50;9.50
72509;PMS5003;60532;56.114;40.350;2023-02-28T05:51:46;20.75;15.25;7.00
72509;PMS5003;60532;56.114;40.350;2023-02-28T05:53:47;23.75;18.00;8.00
72509;PMS5003;60532;56.114;40.350;2023-02-28T05:55:49;17.60;16.60;7.60
72509;PMS5003;60532;56.114;40.350;2023-02-28T05:57:49;22.75;20.50;8.00
72509;PMS5003;60532;56.114;40.350;2023-02-28T05:59:50;21.00;19.50;9.00
72509;PMS5003;60532;56.114;40.350;2023-02-28T06:01:50;14.25;12.25;5.00
72509;PMS5003;60532;56.114;40.350;2023-02-28T06:03:53;17.40;14.80;8.00
72509;PMS5003;60532;56.114;40.350;2023-02-28T06:05:53;15.50;12.50;7.00
72509;PMS5003;60532;56.114;40.350;2023-02-28T06:07:54;18.75;13.00;5.50
72509;PMS5003;60532;56.114;40.350;2023-02-28T06:09:54;15.75;14.00;6.00
72509;PMS5003;60532;56.114;40.350;2023-02-28T06:11:57;21.67;17.00;7.33
72509;PMS5003;60532;56.114;40.350;2023-02-28T06:13:58;18.25;14.75;9.00
72509;PMS5003;60532;56.114;40.350;2023-02-28T06:16:02;18.75;15.50;8.50
72509;PMS5003;60532;56.114;40.350;2023-02-28T06:18:03;14.00;10.75;6.00
72509;PMS5003;60532;56.114;40.350;2023-02-28T06:20:04;17.00;13.00;5.33
72509;PMS5003;60532;56.114;40.350;2023-02-28T06:22:04;17.50;12.50;5.00
72509;PMS5003;60532;56.114;40.350;2023-02-28T06:24:05;18.67;15.00;7.67
72509;PMS5003;60532;56.114;40.350;2023-02-28T06:26:05;14.67;12.33;6.00
72509;PMS5003;60532;56.114;40.350;2023-02-28T06:28:06;12.00;12.00;7.33
72509;PMS5003;60532;56.114;40.350;2023-02-28T06:30:08;14.33;11.67;5.00
72509;PMS5003;60532;56.114;40.350;2023-02-28T06:32:09;15.25;12.25;6.50
72509;PMS5003;60532;56.114;40.350;2023-02-28T06:34:10;17.33;14.00;6.33
72509;PMS5003;60532;56.114;40.350;2023-02-28T06:36:12;18.25;14.75;6.50
72509;PMS5003;60532;56.114;40.350;2023-02-28T06:38:13;9.50;6.50;1.00
72509;PMS5003;60532;56.114;40.350;2023-02-28T06:40:13;10.00;7.67;4.33
72509;PMS5003;60532;56.114;40.350;2023-02-28T06:42:14;10.50;9.50;5.75
72509;PMS5003;60532;56.114;40.350;2023-02-28T06:44:15;13.67;12.00;5.00
72509;PMS5003;60532;56.114;40.350;2023-02-28T06:46:16;16.25;12.00;5.50
72509;PMS5003;60532;56.114;40.350;2023-02-28T06:48:17;16.33;11.33;5.00
72509;PMS5003;60532;56.114;40.350;2023-02-28T06:50:17;19.00;12.67;6.33
72509;PMS5003;60532;56.114;40.350;2023-02-28T06:52:19;16.00;11.25;7.00
72509;PMS5003;60532;56.114;40.350;2023-02-28T06:54:20;10.00;9.00;2.00
72509;PMS5003;60532;56.114;40.350;2023-02-28T06:56:21;23.33;12.00;7.00
72509;PMS5003;60532;56.114;40.350;2023-02-28T06:58:21;14.20;13.40;5.00
72509;PMS5003;60532;56.114;40.350;2023-02-28T07:00:22;13.50;11.00;7.00
72509;PMS5003;60532;56.114;40.350;2023-02-28T07:02:22;13.50;10.00;2.00
72509;PMS5003;60532;56.114;40.350;2023-02-28T07:04:23;16.25;13.00;5.00
72509;PMS5003;60532;56.114;40.350;2023-02-28T07:06:24;11.25;10.25;5.00
72509;PMS5003;60532;56.114;40.350;2023-02-28T07:08:25;18.25;15.75;5.00
72509;PMS5003;60532;56.114;40.350;2023-02-28T07:10:25;10.75;9.50;2.00
72509;PMS5003;60532;56.114;40.350;2023-02-28T07:12:26;15.50;14.00;7.00
72509;PMS5003;60532;56.114;40.350;2023-02-28T07:14:26;16.50;14.00;5.00
72509;PMS5003;60532;56.114;40.350;2023-02-28T07:16:26;14.25;10.50;5.00
72509;PMS5003;60532;56.114;40.350;2023-02-28T07:18:27;13.00;11.00;5.00
72509;PMS5003;60532;56.114;40.350;2023-02-28T07:20:28;17.00;12.50;4.00
72509;PMS5003;60532;56.114;40.350;2023-02-28T07:22:28;11.50;9.50;4.00
72509;PMS5003;60532;56.114;40.350;2023-02-28T07:24:29;12.50;9.00;3.50
72509;PMS5003;60532;56.114;40.350;2023-02-28T07:26:29;16.50;14.00;5.00
72509;PMS5003;60532;56.114;40.350;2023-02-28T07:28:30;15.75;13.75;8.00
72509;PMS5003;60532;56.114;40.350;2023-02-28T07:30:30;11.00;10.00;4.00
72509;PMS5003;60532;56.114;40.350;2023-02-28T07:32:31;16.75;11.50;4.00
72509;PMS5003;60532;56.114;40.350;2023-02-28T07:34:31;13.75;13.25;5.00
72509;PMS5003;60532;56.114;40.350;2023-02-28T07:36:32;10.50;7.25;2.50
72509;PMS5003;60532;56.114;40.350;2023-02-28T07:38:36;18.00;14.00;4.75
72509;PMS5003;60532;56.114;40.350;2023-02-28T07:40:36;13.80;10.80;5.00
72509;PMS5003;60532;56.114;40.350;2023-02-28T07:42:37;12.75;7.75;4.75
72509;PMS5003;60532;56.114;40.350;2023-02-28T07:44:38;12.60;7.20;4.20
72509;PMS5003;60532;56.114;40.350;2023-02-28T07:46:40;13.00;8.00;3.60
72509;PMS5003;60532;56.114;40.350;2023-02-28T07:48:41;5.00;1.25;1.00
72509;PMS5003;60532;56.114;40.350;2023-02-28T07:50:41;12.00;11.00;5.00
72509;PMS5003;60532;56.114;40.350;2023-02-28T07:52:42;15.50;9.00;4.00
72509;PMS5003;60532;56.114;40.350;2023-02-28T07:54:42;12.50;9.00;4.00
72509;PMS5003;60532;56.114;40.350;2023-02-28T07:56:43;15.00;12.50;7.50
72509;PMS5003;60532;56.114;40.350;2023-02-28T07:58:43;12.00;10.00;4.00
72509;PMS5003;60532;56.114;40.350;2023-02-28T08:00:44;13.00;11.00;4.00
72509;PMS5003;60532;56.114;40.350;2023-02-28T08:02:47;7.60;5.00;1.00
72509;PMS5003;60532;56.114;40.350;2023-02-28T08:04:47;14.00;10.50;4.50
72509;PMS5003;60532;56.114;40.350;2023-02-28T08:06:48;14.00;13.00;5.00
72509;PMS5003;60532;56.114;40.350;2023-02-28T08:08:52;14.80;13.00;6.60
72509;PMS5003;60532;56.114;40.350;2023-02-28T08:10:52;15.50;12.00;5.50
72509;PMS5003;60532;56.114;40.350;2023-02-28T08:12:53;11.50;10.75;4.00
72509;PMS5003;60532;56.114;40.350;2023-02-28T08:14:53;14.00;12.50;5.00
72509;PMS5003;60532;56.114;40.350;2023-02-28T08:16:54;15.00;10.75;5.00
72509;PMS5003;60532;56.114;40.350;2023-02-28T08:18:54;18.50;12.50;4.00
72509;PMS5003;60532;56.114;40.350;2023-02-28T08:20:55;18.75;11.00;7.25
72509;PMS5003;60532;56.114;40.350;2023-02-28T08:22:56;11.80;10.00;1.80
72509;PMS5003;60532;56.114;40.350;2023-02-28T08:24:57;13.50;10.50;6.00
72509;PMS5003;60532;56.114;40.350;2023-02-28T08:26:57;16.00;14.00;4.00
72509;PMS5003;60532;56.114;40.350;2023-02-28T08:28:58;17.25;14.25;7.00
72509;PMS5003;60532;56.114;40.350;2023-02-28T08:30:58;12.25;9.50;4.00
72509;PMS5003;60532;56.114;40.350;2023-02-28T08:32:59;14.50;10.50;5.75
72509;PMS5003;60532;56.114;40.350;2023-02-28T08:34:59;16.50;12.50;5.00
72509;PMS5003;60532;56.114;40.350;2023-02-28T08:37:00;16.50;12.00;5.25
72509;PMS5003;60532;56.114;40.350;2023-02-28T08:39:00;22.50;13.00;6.50
72509;PMS5003;60532;56.114;40.350;2023-02-28T08:41:03;11.25;10.25;6.00
72509;PMS5003;60532;56.114;40.350;2023-02-28T08:43:05;22.20;19.20;7.20
72509;PMS5003;60532;56.114;40.350;2023-02-28T08:45:06;20.25;15.50;7.00
72509;PMS5003;60532;56.114;40.350;2023-02-28T08:47:07;18.00;15.00;5.00
72509;PMS5003;60532;56.114;40.350;2023-02-28T08:49:09;18.50;14.00;7.00
72509;PMS5003;60532;56.114;40.350;2023-02-28T08:51:11;13.40;10.60;4.20
72509;PMS5003;60532;56.114;40.350;2023-02-28T08:53:13;14.60;13.00;6.60
72509;PMS5003;60532;56.114;40.350;2023-02-28T08:55:13;20.25;16.75;8.00
72509;PMS5003;60532;56.114;40.350;2023-02-28T08:57:14;16.00;14.00;7.00
72509;PMS5003;60532;56.114;40.350;2023-02-28T08:59:14;17.25;10.00;4.75
72509;PMS5003;60532;56.114;40.350;2023-02-28T09:03:15;20.00;13.00;4.00
72509;PMS5003;60532;56.114;40.350;2023-02-28T09:05:16;11.75;11.50;7.00
72509;PMS5003;60532;56.114;40.350;2023-02-28T09:07:16;10.75;10.00;6.50
72509;PMS5003;60532;56.114;40.350;2023-02-28T09:09:17;10.75;10.75;7.50
72509;PMS5003;60532;56.114;40.350;2023-02-28T09:11:17;20.00;15.25;6.50
72509;PMS5003;60532;56.114;40.350;2023-02-28T09:13:19;18.60;15.60;7.00
72509;PMS5003;60532;56.114;40.350;2023-02-28T09:15:19;13.25;9.00;5.00
72509;PMS5003;60532;56.114;40.350;2023-02-28T09:17:20;26.00;13.25;6.75
72509;PMS5003;60532;56.114;40.350;2023-02-28T09:19:20;19.50;13.00;7.00
72509;PMS5003;60532;56.114;40.350;2023-02-28T09:21:21;18.00;13.50;7.00
72509;PMS5003;60532;56.114;40.350;2023-02-28T09:23:21;9.25;9.25;4.00
72509;PMS5003;60532;56.114;40.350;2023-02-28T09:25:22;19.00;13.00;5.00
72509;PMS5003;60532;56.114;40.350;2023-02-28T09:27:22;10.25;10.25;5.00
72509;PMS5003;60532;56.114;40.350;2023-02-28T09:29:23;10.75;10.00;7.00
72509;PMS5003;60532;56.114;40.350;2023-02-28T09:31:24;14.00;10.25;5.00
72509;PMS5003;60532;56.114;40.350;2023-02-28T09:33:24;9.80;9.80;5.00
72509;PMS5003;60532;56.114;40.350;2023-02-28T09:35:25;13.50;10.75;5.00
72509;PMS5003;60532;56.114;40.350;2023-02-28T09:37:26;20.00;16.60;7.00
72509;PMS5003;60532;56.114;40.350;2023-02-28T09:39:30;18.80;15.60;7.00
72509;PMS5003;60532;56.114;40.350;2023-02-28T09:41:35;18.60;12.20;5.40
72509;PMS5003;60532;56.114;40.350;2023-02-28T09:43:40;20.60;16.40;7.60
72509;PMS5003;60532;56.114;40.350;2023-02-28T09:45:46;21.40;11.40;5.40
72509;PMS5003;60532;56.114;40.350;2023-02-28T09:47:48;18.60;14.00;5.80
72509;PMS5003;60532;56.114;40.350;2023-02-28T09:49:50;16.40;14.40;7.00
72509;PMS5003;60532;56.114;40.350;2023-02-28T09:52:10;11.00;10.00;4.75
72509;PMS5003;60532;56.114;40.350;2023-02-28T09:54:21;10.20;8.40;3.20
72509;PMS5003;60532;56.114;40.350;2023-02-28T09:56:39;14.40;12.00;4.00
72509;PMS5003;60532;56.114;40.350;2023-02-28T09:59:02;12.60;12.60;4.80
72509;PMS5003;60532;56.114;40.350;2023-02-28T10:01:06;15.80;13.80;5.80
72509;PMS5003;60532;56.114;40.350;2023-02-28T10:05:52;23.20;17.00;7.20
72509;PMS5003;60532;56.114;40.350;2023-02-28T10:10:21;17.40;11.00;4.60
72509;PMS5003;60532;56.114;40.350;2023-02-28T10:12:23;16.60;11.20;2.40
72509;PMS5003;60532;56.114;40.350;2023-02-28T10:14:26;15.20;12.20;5.00
72509;PMS5003;60532;56.114;40.350;2023-02-28T10:16:30;14.40;13.00;4.00
72509;PMS5003;60532;56.114;40.350;2023-02-28T10:18:53;10.00;10.00;5.80
72509;PMS5003;60532;56.114;40.350;2023-02-28T10:20:55;14.20;8.20;5.00
72509;PMS5003;60532;56.114;40.350;2023-02-28T10:22:57;17.80;13.60;5.00
72509;PMS5003;60532;56.114;40.350;2023-02-28T10:25:00;13.20;10.20;2.00
72509;PMS5003;60532;56.114;40.350;2023-02-28T10:27:25;14.20;14.20;7.40
72509;PMS5003;60532;56.114;40.350;2023-02-28T10:29:23;15.60;10.20;5.00
72509;PMS5003;60532;56.114;40.350;2023-02-28T10:31:24;10.00;10.00;4.00
72509;PMS5003;60532;56.114;40.350;2023-02-28T10:33:32;11.00;9.00;4.75
72509;PMS5003;60532;56.114;40.350;2023-02-28T10:35:34;13.20;13.00;5.00
72509;PMS5003;60532;56.114;40.350;2023-02-28T10:37:37;10.00;10.00;4.25
72509;PMS5003;60532;56.114;40.350;2023-02-28T10:39:42;16.40;9.20;2.40
72509;PMS5003;60532;56.114;40.350;2023-02-28T10:41:43;16.40;10.20;4.00
72509;PMS5003;60532;56.114;40.350;2023-02-28T10:43:44;13.40;8.60;3.00
72509;PMS5003;60532;56.114;40.350;2023-02-28T10:50:32;15.40;8.80;4.00
72509;PMS5003;60532;56.114;40.350;2023-02-28T10:52:37;8.40;8.40;2.40
72509;PMS5003;60532;56.114;40.350;2023-02-28T10:54:39;8.00;8.00;2.80
72509;PMS5003;60532;56.114;40.350;2023-02-28T10:56:40;10.80;9.40;3.60
72509;PMS5003;60532;56.114;40.350;2023-02-28T11:00:45;11.00;8.00;4.00
72509;PMS5003;60532;56.114;40.350;2023-02-28T11:02:46;10.60;9.20;4.80
72509;PMS5003;60532;56.114;40.350;2023-02-28T11:04:46;13.00;12.50;5.00
72509;PMS5003;60532;56.114;40.350;2023-02-28T11:06:47;13.00;9.00;4.00
72509;PMS5003;60532;56.114;40.350;2023-02-28T11:08:49;11.40;8.20;3.20
72509;PMS5003;60532;56.114;40.350;2023-02-28T11:10:57;12.20;8.20;4.00
72509;PMS5003;60532;56.114;40.350;2023-02-28T11:12:58;17.80;10.80;5.00
72509;PMS5003;60532;56.114;40.350;2023-02-28T11:15:00;18.00;10.60;4.00
72509;PMS5003;60532;56.114;40.350;2023-02-28T11:17:23;10.60;8.20;4.60
72509;PMS5003;60532;56.114;40.350;2023-02-28T11:19:27;9.80;8.40;3.20
72509;PMS5003;60532;56.114;40.350;2023-02-28T11:21:29;8.00;5.40;2.00
72509;PMS5003;60532;56.114;40.350;2023-02-28T11:23:33;11.80;8.00;2.40
72509;PMS5003;60532;56.114;40.350;2023-02-28T11:25:36;10.20;8.80;2.40
72509;PMS5003;60532;56.114;40.350;2023-02-28T11:27:42;10.60;7.60;3.20
72509;PMS5003;60532;56.114;40.350;2023-02-28T11:29:46;11.00;10.00;5.00
72509;PMS5003;60532;56.114;40.350;2023-02-28T11:32:04;12.75;9.75;4.00
72509;PMS5003;60532;56.114;40.350;2023-02-28T11:34:21;9.60;9.60;4.00
72509;PMS5003;60532;56.114;40.350;2023-02-28T11:36:27;6.20;5.80;1.00
72509;PMS5003;60532;56.114;40.350;2023-02-28T11:38:28;9.80;8.20;3.60
72509;PMS5003;60532;56.114;40.350;2023-02-28T11:40:36;10.50;8.50;2.00
72509;PMS5003;60532;56.114;40.350;2023-02-28T11:42:45;10.80;9.60;4.00
72509;PMS5003;60532;56.114;40.350;2023-02-28T11:46:58;10.80;7.80;4.00
72509;PMS5003;60532;56.114;40.350;2023-02-28T11:49:13;7.60;7.40;3.60
72509;PMS5003;60532;56.114;40.350;2023-02-28T11:51:21;12.60;12.60;5.00
72509;PMS5003;60532;56.114;40.350;2023-02-28T11:55:52;7.00;7.00;4.40
72509;PMS5003;60532;56.114;40.350;2023-02-28T12:15:16;11.20;10.20;5.20
72509;PMS5003;60532;56.114;40.350;2023-02-28T12:17:37;7.00;5.80;2.00
72509;PMS5003;60532;56.114;40.350;2023-02-28T12:19:43;11.80;9.60;4.00
72509;PMS5003;60532;56.114;40.350;2023-02-28T12:25:59;7.75;6.50;2.50
72509;PMS5003;60532;56.114;40.350;2023-02-28T12:28:02;8.80;6.60;2.60
72509;PMS5003;60532;56.114;40.350;2023-02-28T12:30:04;8.25;6.25;2.50
72509;PMS5003;60532;56.114;40.350;2023-02-28T12:32:15;13.00;8.00;4.00
72509;PMS5003;60532;56.114;40.350;2023-02-28T12:34:18;12.00;7.60;2.20
72509;PMS5003;60532;56.114;40.350;2023-02-28T12:36:20;7.20;7.20;2.00
72509;PMS5003;60532;56.114;40.350;2023-02-28T12:40:34;10.20;6.60;2.00